sensor_id;sensor_type;location;lat;lon;timestamp;temperature;humidity
5588;DHT22;2816;49.778;9.986;2023-01-08T00:01:19;5.40;99.90
5588;DHT22;2816;49.778;9.986;2023-01-08T00:03:46;5.40;99.90
5588;DHT22;2816;49.778;9.986;2023-01-08T00:06:16;5.40;99.90
5588;DHT22;2816;49.778;9.986;2023-01-08T00:08:43;5.40;99.90
5588;DHT22;2816;49.778;9.986;2023-01-08T00:11:11;5.40;99.90
5588;DHT22;2816;49.778;9.986;2023-01-08T00:13:38;5.50;99.90
5588;DHT22;2816;49.778;9.986;2023-01-08T00:16:07;5.50;99.90
5588;DHT22;2816;49.778;9.986;2023-01-08T00:18:36;5.50;99.90
5588;DHT22;2816;49.778;9.986;2023-01-08T00:21:04;5.50;99.90
5588;DHT22;2816;49.778;9.986;2023-01-08T00:23:31;5.50;99.90
5588;DHT22;2816;49.778;9.986;2023-01-08T00:26:00;5.60;99.90
5588;DHT22;2816;49.778;9.986;2023-01-08T00:28:28;5.60;99.90
5588;DHT22;2816;49.778;9.986;2023-01-08T00:30:54;5.60;99.90
5588;DHT22;2816;49.778;9.986;2023-01-08T00:33:22;5.60;99.90
5588;DHT22;2816;49.778;9.986;2023-01-08T00:35:50;5.60;99.90
5588;DHT22;2816;49.778;9.986;2023-01-08T00:38:17;5.60;99.90
5588;DHT22;2816;49.778;9.986;2023-01-08T00:40:44;5.50;99.90
5588;DHT22;2816;49.778;9.986;2023-01-08T00:43:11;5.60;99.90
5588;DHT22;2816;49.778;9.986;2023-01-08T00:45:38;5.60;99.90
5588;DHT22;2816;49.778;9.986;2023-01-08T00:48:05;5.50;99.90
5588;DHT22;2816;49.778;9.986;2023-01-08T00:50:32;5.60;99.90
5588;DHT22;2816;49.778;9.986;2023-01-08T00:53:01;5.60;99.90
5588;DHT22;2816;49.778;9.986;2023-01-08T00:55:29;5.60;99.90
5588;DHT22;2816;49.778;9.986;2023-01-08T00:57:56;5.60;99.90
5588;DHT22;2816;49.778;9.986;2023-01-08T01:00:23;5.70;99.90
5588;DHT22;2816;49.778;9.986;2023-01-08T01:02:50;5.70;99.90
5588;DHT22;2816;49.778;9.986;2023-01-08T01:05:17;5.70;99.90
5588;DHT22;2816;49.778;9.986;2023-01-08T01:07:44;5.70;99.90
5588;DHT22;2816;49.778;9.986;2023-01-08T01:10:14;5.80;99.90
5588;DHT22;2816;49.778;9.986;2023-01-08T01:12:42;5.80;99.90
5588;DHT22;2816;49.778;9.986;2023-01-08T01:15:11;5.80;99.90
5588;DHT22;2816;49.778;9.986;2023-01-08T01:17:40;5.80;99.90
5588;DHT22;2816;49.778;9.986;2023-01-08T01:20:11;5.80;99.90
5588;DHT22;2816;49.778;9.986;2023-01-08T01:22:38;5.80;99.90
5588;DHT22;2816;49.778;9.986;2023-01-08T01:25:06;5.80;99.90
5588;DHT22;2816;49.778;9.986;2023-01-08T01:27:34;5.80;99.90
5588;DHT22;2816;49.778;9.986;2023-01-08T01:30:01;5.80;99.90
5588;DHT22;2816;49.778;9.986;2023-01-08T01:32:28;5.80;99.90
5588;DHT22;2816;49.778;9.986;2023-01-08T01:34:55;5.70;99.90
5588;DHT22;2816;49.778;9.986;2023-01-08T01:37:22;5.70;99.90
5588;DHT22;2816;49.778;9.986;2023-01-08T01:39:49;5.70;99.90
5588;DHT22;2816;49.778;9.986;2023-01-08T01:42:17;5.70;99.90
5588;DHT22;2816;49.778;9.986;2023-01-08T01:45:00;5.80;99.90
5588;DHT22;2816;49.778;9.986;2023-01-08T01:47:29;5.80;99.90
5588;DHT22;2816;49.778;9.986;2023-01-08T01:50:02;5.70;99.90
5588;DHT22;2816;49.778;9.986;2023-01-08T01:52:35;5.70;99.90
5588;DHT22;2816;49.778;9.986;2023-01-08T01:55:05;5.70;99.90
5588;DHT22;2816;49.778;9.986;2023-01-08T01:57:33;5.60;99.90
5588;DHT22;2816;49.778;9.986;2023-01-08T02:00:04;5.60;99.90
5588;DHT22;2816;49.778;9.986;2023-01-08T02:02:32;5.60;99.90
5588;DHT22;2816;49.778;9.986;2023-01-08T02:04:59;5.60;99.90
5588;DHT22;2816;49.778;9.986;2023-01-08T02:07:31;5.60;99.90
5588;DHT22;2816;49.778;9.986;2023-01-08T02:10:05;5.60;99.90
5588;DHT22;2816;49.778;9.986;2023-01-08T02:12:38;5.60;99.90
5588;DHT22;2816;49.778;9.986;2023-01-08T02:15:13;5.60;99.90
5588;DHT22;2816;49.778;9.986;2023-01-08T02:17:47;5.60;99.90
5588;DHT22;2816;49.778;9.986;2023-01-08T02:20:19;5.60;99.90
5588;DHT22;2816;49.778;9.986;2023-01-08T02:23:10;5.70;99.90
5588;DHT22;2816;49.778;9.986;2023-01-08T02:26:03;5.60;99.90
5588;DHT22;2816;49.778;9.986;2023-01-08T02:28:35;5.70;99.90
5588;DHT22;2816;49.778;9.986;2023-01-08T02:31:05;5.70;99.90
5588;DHT22;2816;49.778;9.986;2023-01-08T02:33:32;5.70;99.90
5588;DHT22;2816;49.778;9.986;2023-01-08T02:36:25;5.70;99.90
5588;DHT22;2816;49.778;9.986;2023-01-08T02:39:03;5.70;99.90
5588;DHT22;2816;49.778;9.986;2023-01-08T02:41:39;5.70;99.90
5588;DHT22;2816;49.778;9.986;2023-01-08T02:44:12;5.70;99.90
5588;DHT22;2816;49.778;9.986;2023-01-08T02:46:41;5.70;99.90
5588;DHT22;2816;49.778;9.986;2023-01-08T02:49:10;5.70;99.90
5588;DHT22;2816;49.778;9.986;2023-01-08T02:51:41;5.70;99.90
5588;DHT22;2816;49.778;9.986;2023-01-08T02:54:11;5.70;99.90
5588;DHT22;2816;49.778;9.986;2023-01-08T02:56:42;5.70;99.90
5588;DHT22;2816;49.778;9.986;2023-01-08T02:59:13;5.70;99.90
5588;DHT22;2816;49.778;9.986;2023-01-08T03:01:41;5.70;99.90
5588;DHT22;2816;49.778;9.986;2023-01-08T03:04:15;5.70;99.90
5588;DHT22;2816;49.778;9.986;2023-01-08T03:06:42;5.70;99.90
5588;DHT22;2816;49.778;9.986;2023-01-08T03:09:10;5.70;99.90
5588;DHT22;2816;49.778;9.986;2023-01-08T03:11:43;5.60;99.90
5588;DHT22;2816;49.778;9.986;2023-01-08T03:14:17;5.70;99.90
5588;DHT22;2816;49.778;9.986;2023-01-08T03:16:48;5.70;99.90
5588;DHT22;2816;49.778;9.986;2023-01-08T03:19:20;5.70;99.90
5588;DHT22;2816;49.778;9.986;2023-01-08T03:21:49;5.70;99.90
5588;DHT22;2816;49.778;9.986;2023-01-08T03:24:26;5.80;99.90
5588;DHT22;2816;49.778;9.986;2023-01-08T03:26:57;5.70;99.90
5588;DHT22;2816;49.778;9.986;2023-01-08T03:29:25;5.80;99.90
5588;DHT22;2816;49.778;9.986;2023-01-08T03:31:56;5.80;99.90
5588;DHT22;2816;49.778;9.986;2023-01-08T03:34:25;5.80;99.90
5588;DHT22;2816;49.778;9.986;2023-01-08T03:36:57;5.80;99.90
5588;DHT22;2816;49.778;9.986;2023-01-08T03:39:27;5.80;99.90
5588;DHT22;2816;49.778;9.986;2023-01-08T03:42:00;5.90;99.90
5588;DHT22;2816;49.778;9.986;2023-01-08T03:44:29;5.90;99.90
5588;DHT22;2816;49.778;9.986;2023-01-08T03:46:57;5.90;99.90
5588;DHT22;2816;49.778;9.986;2023-01-08T03:49:25;5.90;99.90
5588;DHT22;2816;49.778;9.986;2023-01-08T03:51:52;5.90;99.90
5588;DHT22;2816;49.778;9.986;2023-01-08T03:54:22;5.90;99.90
5588;DHT22;2816;49.778;9.986;2023-01-08T03:56:50;5.90;99.90
5588;DHT22;2816;49.778;9.986;2023-01-08T03:59:18;5.80;99.90
5588;DHT22;2816;49.778;9.986;2023-01-08T04:01:45;5.80;99.90
5588;DHT22;2816;49.778;9.986;2023-01-08T04:04:12;5.80;99.90
5588;DHT22;2816;49.778;9.986;2023-01-08T04:06:39;5.90;99.90
5588;DHT22;2816;49.778;9.986;2023-01-08T04:09:06;5.80;99.90
5588;DHT22;2816;49.778;9.986;2023-01-08T04:11:33;5.90;99.90
5588;DHT22;2816;49.778;9.986;2023-01-08T04:14:00;5.90;99.90
5588;DHT22;2816;49.778;9.986;2023-01-08T04:16:28;5.90;99.90
5588;DHT22;2816;49.778;9.986;2023-01-08T04:18:56;5.90;99.90
5588;DHT22;2816;49.778;9.986;2023-01-08T04:21:23;5.90;99.90
5588;DHT22;2816;49.778;9.986;2023-01-08T04:23:49;5.90;99.90
5588;DHT22;2816;49.778;9.986;2023-01-08T04:26:16;5.90;99.90
5588;DHT22;2816;49.778;9.986;2023-01-08T04:28:44;5.90;99.90
5588;DHT22;2816;49.778;9.986;2023-01-08T04:31:11;5.90;99.90
5588;DHT22;2816;49.778;9.986;2023-01-08T04:33:39;5.90;99.90
5588;DHT22;2816;49.778;9.986;2023-01-08T04:36:06;5.80;99.90
5588;DHT22;2816;49.778;9.986;2023-01-08T04:38:33;5.80;99.90
5588;DHT22;2816;49.778;9.986;2023-01-08T04:41:00;5.80;99.90
5588;DHT22;2816;49.778;9.986;2023-01-08T04:43:28;5.80;99.90
5588;DHT22;2816;49.778;9.986;2023-01-08T04:45:57;5.90;99.90
5588;DHT22;2816;49.778;9.986;2023-01-08T04:48:24;5.90;99.90
5588;DHT22;2816;49.778;9.986;2023-01-08T04:50:52;5.90;99.90
5588;DHT22;2816;49.778;9.986;2023-01-08T04:53:19;5.90;99.90
5588;DHT22;2816;49.778;9.986;2023-01-08T04:55:46;6.00;99.90
5588;DHT22;2816;49.778;9.986;2023-01-08T04:58:13;5.90;99.90
5588;DHT22;2816;49.778;9.986;2023-01-08T05:00:40;5.90;99.90
5588;DHT22;2816;49.778;9.986;2023-01-08T05:03:07;5.90;99.90
5588;DHT22;2816;49.778;9.986;2023-01-08T05:05:34;5.80;99.90
5588;DHT22;2816;49.778;9.986;2023-01-08T05:08:03;5.80;99.90
5588;DHT22;2816;49.778;9.986;2023-01-08T05:10:30;5.90;99.90
5588;DHT22;2816;49.778;9.986;2023-01-08T05:12:58;5.90;99.90
5588;DHT22;2816;49.778;9.986;2023-01-08T05:15:25;5.90;99.90
5588;DHT22;2816;49.778;9.986;2023-01-08T05:17:57;5.90;99.90
5588;DHT22;2816;49.778;9.986;2023-01-08T05:20:24;6.00;99.90
5588;DHT22;2816;49.778;9.986;2023-01-08T05:22:51;6.00;99.90
5588;DHT22;2816;49.778;9.986;2023-01-08T05:25:20;6.00;99.90
5588;DHT22;2816;49.778;9.986;2023-01-08T05:27:47;6.10;99.90
5588;DHT22;2816;49.778;9.986;2023-01-08T05:30:15;6.00;99.90
5588;DHT22;2816;49.778;9.986;2023-01-08T05:32:42;6.00;99.90
5588;DHT22;2816;49.778;9.986;2023-01-08T05:35:09;5.90;99.90
5588;DHT22;2816;49.778;9.986;2023-01-08T05:37:37;6.00;99.90
5588;DHT22;2816;49.778;9.986;2023-01-08T05:40:04;5.90;99.90
5588;DHT22;2816;49.778;9.986;2023-01-08T05:42:34;6.00;99.90
5588;DHT22;2816;49.778;9.986;2023-01-08T05:45:01;6.00;99.90
5588;DHT22;2816;49.778;9.986;2023-01-08T05:47:29;6.00;99.90
5588;DHT22;2816;49.778;9.986;2023-01-08T05:49:56;6.00;99.90
5588;DHT22;2816;49.778;9.986;2023-01-08T05:52:24;6.00;99.90
5588;DHT22;2816;49.778;9.986;2023-01-08T05:54:51;6.00;99.90
5588;DHT22;2816;49.778;9.986;2023-01-08T05:57:18;6.00;99.90
5588;DHT22;2816;49.778;9.986;2023-01-08T05:59:46;5.90;99.90
5588;DHT22;2816;49.778;9.986;2023-01-08T06:02:13;6.00;99.90
5588;DHT22;2816;49.778;9.986;2023-01-08T06:04:40;6.00;99.90
5588;DHT22;2816;49.778;9.986;2023-01-08T06:07:07;6.00;99.90
5588;DHT22;2816;49.778;9.986;2023-01-08T06:09:34;6.00;99.90
5588;DHT22;2816;49.778;9.986;2023-01-08T06:12:01;6.10;99.90
5588;DHT22;2816;49.778;9.986;2023-01-08T06:14:28;6.10;99.90
5588;DHT22;2816;49.778;9.986;2023-01-08T06:16:56;6.10;99.90
5588;DHT22;2816;49.778;9.986;2023-01-08T06:19:23;6.00;99.90
5588;DHT22;2816;49.778;9.986;2023-01-08T06:21:53;6.00;99.90
5588;DHT22;2816;49.778;9.986;2023-01-08T06:24:19;6.10;99.90
5588;DHT22;2816;49.778;9.986;2023-01-08T06:26:46;6.10;99.90
5588;DHT22;2816;49.778;9.986;2023-01-08T06:29:13;6.10;99.90
5588;DHT22;2816;49.778;9.986;2023-01-08T06:31:40;6.10;99.90
5588;DHT22;2816;49.778;9.986;2023-01-08T06:34:09;6.10;99.90
5588;DHT22;2816;49.778;9.986;2023-01-08T06:36:36;6.10;99.90
5588;DHT22;2816;49.778;9.986;2023-01-08T06:39:04;6.10;99.90
5588;DHT22;2816;49.778;9.986;2023-01-08T06:41:31;6.10;99.90
5588;DHT22;2816;49.778;9.986;2023-01-08T06:43:58;6.00;99.90
5588;DHT22;2816;49.778;9.986;2023-01-08T06:46:25;6.10;99.90
5588;DHT22;2816;49.778;9.986;2023-01-08T06:48:52;6.10;99.90
5588;DHT22;2816;49.778;9.986;2023-01-08T06:51:20;6.10;99.90
5588;DHT22;2816;49.778;9.986;2023-01-08T06:53:47;6.10;99.90
5588;DHT22;2816;49.778;9.986;2023-01-08T06:56:14;6.10;99.90
5588;DHT22;2816;49.778;9.986;2023-01-08T06:58:42;6.10;99.90
5588;DHT22;2816;49.778;9.986;2023-01-08T07:01:12;6.20;99.90
5588;DHT22;2816;49.778;9.986;2023-01-08T07:03:40;6.10;99.90
5588;DHT22;2816;49.778;9.986;2023-01-08T07:06:12;6.20;99.90
5588;DHT22;2816;49.778;9.986;2023-01-08T07:08:41;6.20;99.90
5588;DHT22;2816;49.778;9.986;2023-01-08T07:11:08;6.20;99.90
5588;DHT22;2816;49.778;9.986;2023-01-08T07:13:35;6.20;99.90
5588;DHT22;2816;49.778;9.986;2023-01-08T07:16:05;6.10;99.90
5588;DHT22;2816;49.778;9.986;2023-01-08T07:18:33;6.20;99.90
5588;DHT22;2816;49.778;9.986;2023-01-08T07:21:01;6.10;99.90
5588;DHT22;2816;49.778;9.986;2023-01-08T07:23:29;6.20;99.90
5588;DHT22;2816;49.778;9.986;2023-01-08T07:26:00;6.20;99.90
5588;DHT22;2816;49.778;9.986;2023-01-08T07:28:27;6.10;99.90
5588;DHT22;2816;49.778;9.986;2023-01-08T07:30:54;6.10;99.90
5588;DHT22;2816;49.778;9.986;2023-01-08T07:33:24;6.20;99.90
5588;DHT22;2816;49.778;9.986;2023-01-08T07:35:52;6.10;99.90
5588;DHT22;2816;49.778;9.986;2023-01-08T07:38:20;6.10;99.90
5588;DHT22;2816;49.778;9.986;2023-01-08T07:40:46;6.20;99.90
5588;DHT22;2816;49.778;9.986;2023-01-08T07:43:15;6.20;99.90
5588;DHT22;2816;49.778;9.986;2023-01-08T07:45:43;6.10;99.90
5588;DHT22;2816;49.778;9.986;2023-01-08T07:48:10;6.20;99.90
5588;DHT22;2816;49.778;9.986;2023-01-08T07:50:40;6.20;99.90
5588;DHT22;2816;49.778;9.986;2023-01-08T07:53:08;6.20;99.90
5588;DHT22;2816;49.778;9.986;2023-01-08T07:55:35;6.20;99.90
5588;DHT22;2816;49.778;9.986;2023-01-08T07:58:06;6.20;99.90
5588;DHT22;2816;49.778;9.986;2023-01-08T08:00:35;6.20;99.90
5588;DHT22;2816;49.778;9.986;2023-01-08T08:03:04;6.20;99.90
5588;DHT22;2816;49.778;9.986;2023-01-08T08:05:32;6.20;99.90
5588;DHT22;2816;49.778;9.986;2023-01-08T08:07:59;6.20;99.90
5588;DHT22;2816;49.778;9.986;2023-01-08T08:10:26;6.20;99.90
5588;DHT22;2816;49.778;9.986;2023-01-08T08:12:53;6.10;99.90
5588;DHT22;2816;49.778;9.986;2023-01-08T08:15:20;6.10;99.90
5588;DHT22;2816;49.778;9.986;2023-01-08T08:17:49;6.10;99.90
5588;DHT22;2816;49.778;9.986;2023-01-08T08:20:16;6.20;99.90
5588;DHT22;2816;49.778;9.986;2023-01-08T08:22:43;6.20;99.90
5588;DHT22;2816;49.778;9.986;2023-01-08T08:25:10;6.20;99.90
5588;DHT22;2816;49.778;9.986;2023-01-08T08:27:39;6.10;99.90
5588;DHT22;2816;49.778;9.986;2023-01-08T08:30:07;6.20;99.90
5588;DHT22;2816;49.778;9.986;2023-01-08T08:32:35;6.10;99.90
5588;DHT22;2816;49.778;9.986;2023-01-08T08:35:04;6.20;99.90
5588;DHT22;2816;49.778;9.986;2023-01-08T08:37:32;6.20;99.90
5588;DHT22;2816;49.778;9.986;2023-01-08T08:39:58;6.20;99.90
5588;DHT22;2816;49.778;9.986;2023-01-08T08:42:25;6.20;99.90
5588;DHT22;2816;49.778;9.986;2023-01-08T08:44:52;6.20;99.90
5588;DHT22;2816;49.778;9.986;2023-01-08T08:47:19;6.30;99.90
5588;DHT22;2816;49.778;9.986;2023-01-08T08:49:47;6.30;99.90
5588;DHT22;2816;49.778;9.986;2023-01-08T08:52:16;6.20;99.90
5588;DHT22;2816;49.778;9.986;2023-01-08T08:54:43;6.30;99.90
5588;DHT22;2816;49.778;9.986;2023-01-08T08:57:10;6.30;99.90
5588;DHT22;2816;49.778;9.986;2023-01-08T08:59:37;6.30;99.90
5588;DHT22;2816;49.778;9.986;2023-01-08T09:02:04;6.30;99.90
5588;DHT22;2816;49.778;9.986;2023-01-08T09:04:32;6.30;99.90
5588;DHT22;2816;49.778;9.986;2023-01-08T09:06:59;6.30;99.90
5588;DHT22;2816;49.778;9.986;2023-01-08T09:09:28;6.30;99.90
5588;DHT22;2816;49.778;9.986;2023-01-08T09:11:55;6.30;99.90
5588;DHT22;2816;49.778;9.986;2023-01-08T09:14:22;6.30;99.90
5588;DHT22;2816;49.778;9.986;2023-01-08T09:16:49;6.40;99.90
5588;DHT22;2816;49.778;9.986;2023-01-08T09:19:16;6.40;99.90
5588;DHT22;2816;49.778;9.986;2023-01-08T09:21:43;6.30;99.90
5588;DHT22;2816;49.778;9.986;2023-01-08T09:24:10;6.40;99.90
5588;DHT22;2816;49.778;9.986;2023-01-08T09:26:39;6.40;99.90
5588;DHT22;2816;49.778;9.986;2023-01-08T09:29:06;6.40;99.90
5588;DHT22;2816;49.778;9.986;2023-01-08T09:31:33;6.40;99.90
5588;DHT22;2816;49.778;9.986;2023-01-08T09:34:00;6.40;99.90
5588;DHT22;2816;49.778;9.986;2023-01-08T09:36:28;6.40;99.90
5588;DHT22;2816;49.778;9.986;2023-01-08T09:38:55;6.50;99.90
5588;DHT22;2816;49.778;9.986;2023-01-08T09:41:24;6.50;99.90
5588;DHT22;2816;49.778;9.986;2023-01-08T09:43:55;6.50;99.90
5588;DHT22;2816;49.778;9.986;2023-01-08T09:46:25;6.60;99.90
5588;DHT22;2816;49.778;9.986;2023-01-08T09:48:52;6.70;99.90
5588;DHT22;2816;49.778;9.986;2023-01-08T09:51:21;6.70;99.90
5588;DHT22;2816;49.778;9.986;2023-01-08T09:53:53;6.80;99.90
5588;DHT22;2816;49.778;9.986;2023-01-08T09:56:21;6.90;99.90
5588;DHT22;2816;49.778;9.986;2023-01-08T09:58:50;6.80;99.90
5588;DHT22;2816;49.778;9.986;2023-01-08T10:01:20;6.80;99.90
5588;DHT22;2816;49.778;9.986;2023-01-08T10:03:50;6.80;99.90
5588;DHT22;2816;49.778;9.986;2023-01-08T10:06:21;6.80;99.90
5588;DHT22;2816;49.778;9.986;2023-01-08T10:08:49;6.80;99.90
5588;DHT22;2816;49.778;9.986;2023-01-08T10:11:17;6.80;99.90
5588;DHT22;2816;49.778;9.986;2023-01-08T10:13:48;6.80;99.90
5588;DHT22;2816;49.778;9.986;2023-01-08T10:16:24;6.90;99.90
5588;DHT22;2816;49.778;9.986;2023-01-08T10:18:52;6.90;99.90
5588;DHT22;2816;49.778;9.986;2023-01-08T10:21:19;6.90;99.90
5588;DHT22;2816;49.778;9.986;2023-01-08T10:23:48;6.90;99.90
5588;DHT22;2816;49.778;9.986;2023-01-08T10:26:25;6.90;99.90
5588;DHT22;2816;49.778;9.986;2023-01-08T10:29:08;7.00;99.90
5588;DHT22;2816;49.778;9.986;2023-01-08T10:31:45;7.00;99.90
5588;DHT22;2816;49.778;9.986;2023-01-08T10:34:23;7.00;99.90
5588;DHT22;2816;49.778;9.986;2023-01-08T10:36:52;7.00;99.90
5588;DHT22;2816;49.778;9.986;2023-01-08T10:39:22;7.00;99.90
5588;DHT22;2816;49.778;9.986;2023-01-08T10:41:50;7.00;99.90
5588;DHT22;2816;49.778;9.986;2023-01-08T10:44:19;7.00;99.90
5588;DHT22;2816;49.778;9.986;2023-01-08T10:46:51;7.00;99.90
5588;DHT22;2816;49.778;9.986;2023-01-08T10:49:28;7.10;99.90
5588;DHT22;2816;49.778;9.986;2023-01-08T10:51:57;7.10;99.90
5588;DHT22;2816;49.778;9.986;2023-01-08T10:54:30;7.10;99.90
5588;DHT22;2816;49.778;9.986;2023-01-08T10:56:57;7.20;99.90
5588;DHT22;2816;49.778;9.986;2023-01-08T10:59:24;7.10;99.90
5588;DHT22;2816;49.778;9.986;2023-01-08T11:01:54;7.10;99.90
5588;DHT22;2816;49.778;9.986;2023-01-08T11:04:26;7.20;99.90
5588;DHT22;2816;49.778;9.986;2023-01-08T11:06:54;7.20;99.90
5588;DHT22;2816;49.778;9.986;2023-01-08T11:09:27;7.30;99.90
5588;DHT22;2816;49.778;9.986;2023-01-08T11:11:54;7.30;99.90
5588;DHT22;2816;49.778;9.986;2023-01-08T11:14:24;7.30;99.90
5588;DHT22;2816;49.778;9.986;2023-01-08T11:16:54;7.40;99.90
5588;DHT22;2816;49.778;9.986;2023-01-08T11:19:24;7.40;99.90
5588;DHT22;2816;49.778;9.986;2023-01-08T11:21:57;7.40;99.90
5588;DHT22;2816;49.778;9.986;2023-01-08T11:24:27;7.50;99.90
5588;DHT22;2816;49.778;9.986;2023-01-08T11:26:59;7.40;99.90
5588;DHT22;2816;49.778;9.986;2023-01-08T11:29:33;7.40;99.90
5588;DHT22;2816;49.778;9.986;2023-01-08T11:32:28;7.40;99.90
5588;DHT22;2816;49.778;9.986;2023-01-08T11:35:00;7.40;99.90
5588;DHT22;2816;49.778;9.986;2023-01-08T11:37:33;7.50;99.90
5588;DHT22;2816;49.778;9.986;2023-01-08T11:40:01;7.40;99.90
5588;DHT22;2816;49.778;9.986;2023-01-08T11:42:46;7.50;99.90
5588;DHT22;2816;49.778;9.986;2023-01-08T11:45:24;7.40;99.90
5588;DHT22;2816;49.778;9.986;2023-01-08T11:48:23;7.40;99.90
5588;DHT22;2816;49.778;9.986;2023-01-08T11:51:13;7.40;99.90
5588;DHT22;2816;49.778;9.986;2023-01-08T11:53:46;7.50;99.90
5588;DHT22;2816;49.778;9.986;2023-01-08T11:56:23;7.50;99.90
5588;DHT22;2816;49.778;9.986;2023-01-08T11:59:03;7.50;99.90
5588;DHT22;2816;49.778;9.986;2023-01-08T12:01:47;7.40;99.90
5588;DHT22;2816;49.778;9.986;2023-01-08T12:04:50;7.50;99.90
5588;DHT22;2816;49.778;9.986;2023-01-08T12:07:24;7.50;99.90
5588;DHT22;2816;49.778;9.986;2023-01-08T12:10:02;7.40;99.90
5588;DHT22;2816;49.778;9.986;2023-01-08T12:12:44;7.40;99.90
5588;DHT22;2816;49.778;9.986;2023-01-08T12:15:19;7.50;99.90
5588;DHT22;2816;49.778;9.986;2023-01-08T12:18:13;7.50;99.90
5588;DHT22;2816;49.778;9.986;2023-01-08T12:20:55;7.60;99.90
5588;DHT22;2816;49.778;9.986;2023-01-08T12:23:38;7.60;99.90
5588;DHT22;2816;49.778;9.986;2023-01-08T12:26:17;7.60;99.90
5588;DHT22;2816;49.778;9.986;2023-01-08T12:29:04;7.70;99.90
5588;DHT22;2816;49.778;9.986;2023-01-08T12:31:50;7.80;99.90
5588;DHT22;2816;49.778;9.986;2023-01-08T12:34:20;7.80;99.90
5588;DHT22;2816;49.778;9.986;2023-01-08T12:37:08;7.90;99.90
5588;DHT22;2816;49.778;9.986;2023-01-08T12:39:45;7.90;99.90
5588;DHT22;2816;49.778;9.986;2023-01-08T12:42:17;7.80;99.90
5588;DHT22;2816;49.778;9.986;2023-01-08T12:44:50;7.90;99.90
5588;DHT22;2816;49.778;9.986;2023-01-08T12:47:22;7.90;99.90
5588;DHT22;2816;49.778;9.986;2023-01-08T12:49:58;7.90;99.90
5588;DHT22;2816;49.778;9.986;2023-01-08T12:52:37;7.90;99.90
5588;DHT22;2816;49.778;9.986;2023-01-08T12:55:16;7.90;99.90
5588;DHT22;2816;49.778;9.986;2023-01-08T12:57:52;7.90;99.90
5588;DHT22;2816;49.778;9.986;2023-01-08T13:00:28;8.00;99.90
5588;DHT22;2816;49.778;9.986;2023-01-08T13:02:58;8.00;99.90
5588;DHT22;2816;49.778;9.986;2023-01-08T13:05:31;8.10;99.90
5588;DHT22;2816;49.778;9.986;2023-01-08T13:08:03;8.00;99.90
5588;DHT22;2816;49.778;9.986;2023-01-08T13:10:47;8.10;99.90
5588;DHT22;2816;49.778;9.986;2023-01-08T13:13:25;8.10;99.90
5588;DHT22;2816;49.778;9.986;2023-01-08T13:15:52;8.20;99.90
5588;DHT22;2816;49.778;9.986;2023-01-08T13:18:30;8.20;99.90
5588;DHT22;2816;49.778;9.986;2023-01-08T13:20:59;8.10;99.90
5588;DHT22;2816;49.778;9.986;2023-01-08T13:23:30;8.20;99.90
5588;DHT22;2816;49.778;9.986;2023-01-08T13:26:00;8.20;99.90
5588;DHT22;2816;49.778;9.986;2023-01-08T13:28:38;8.30;99.90
5588;DHT22;2816;49.778;9.986;2023-01-08T13:31:08;8.30;99.90
5588;DHT22;2816;49.778;9.986;2023-01-08T13:33:38;8.30;99.90
5588;DHT22;2816;49.778;9.986;2023-01-08T13:36:14;8.30;99.90
5588;DHT22;2816;49.778;9.986;2023-01-08T13:38:43;8.30;99.90
5588;DHT22;2816;49.778;9.986;2023-01-08T13:41:32;8.30;99.90
5588;DHT22;2816;49.778;9.986;2023-01-08T13:44:01;8.30;99.90
5588;DHT22;2816;49.778;9.986;2023-01-08T13:46:31;8.20;99.90
5588;DHT22;2816;49.778;9.986;2023-01-08T13:49:00;8.30;99.90
5588;DHT22;2816;49.778;9.986;2023-01-08T13:51:43;8.30;99.90
5588;DHT22;2816;49.778;9.986;2023-01-08T13:54:33;8.30;99.90
5588;DHT22;2816;49.778;9.986;2023-01-08T13:57:05;8.40;99.90
5588;DHT22;2816;49.778;9.986;2023-01-08T13:59:38;8.30;99.90
5588;DHT22;2816;49.778;9.986;2023-01-08T14:02:22;8.30;99.90
5588;DHT22;2816;49.778;9.986;2023-01-08T14:04:50;8.20;99.90
5588;DHT22;2816;49.778;9.986;2023-01-08T14:07:17;8.30;99.90
5588;DHT22;2816;49.778;9.986;2023-01-08T14:09:45;8.20;99.90
5588;DHT22;2816;49.778;9.986;2023-01-08T14:12:14;8.20;99.90
5588;DHT22;2816;49.778;9.986;2023-01-08T14:14:47;8.20;99.90
5588;DHT22;2816;49.778;9.986;2023-01-08T14:17:16;8.30;99.90
5588;DHT22;2816;49.778;9.986;2023-01-08T14:19:44;8.30;99.90
5588;DHT22;2816;49.778;9.986;2023-01-08T14:22:16;8.20;99.90
5588;DHT22;2816;49.778;9.986;2023-01-08T14:24:50;8.20;99.90
5588;DHT22;2816;49.778;9.986;2023-01-08T14:27:21;8.10;99.90
5588;DHT22;2816;49.778;9.986;2023-01-08T14:29:49;8.00;99.90
5588;DHT22;2816;49.778;9.986;2023-01-08T14:32:17;8.00;99.90
5588;DHT22;2816;49.778;9.986;2023-01-08T14:34:45;8.00;99.90
5588;DHT22;2816;49.778;9.986;2023-01-08T14:37:13;8.00;99.90
5588;DHT22;2816;49.778;9.986;2023-01-08T14:39:41;8.00;99.90
5588;DHT22;2816;49.778;9.986;2023-01-08T14:42:14;8.00;99.90
5588;DHT22;2816;49.778;9.986;2023-01-08T14:45:02;8.00;99.90
5588;DHT22;2816;49.778;9.986;2023-01-08T14:47:36;8.00;99.90
5588;DHT22;2816;49.778;9.986;2023-01-08T14:50:05;8.00;99.90
5588;DHT22;2816;49.778;9.986;2023-01-08T14:52:34;8.00;99.90
5588;DHT22;2816;49.778;9.986;2023-01-08T14:55:05;8.00;99.90
5588;DHT22;2816;49.778;9.986;2023-01-08T14:57:34;8.00;99.90
5588;DHT22;2816;49.778;9.986;2023-01-08T15:00:01;8.00;99.90
5588;DHT22;2816;49.778;9.986;2023-01-08T15:02:30;7.90;99.90
5588;DHT22;2816;49.778;9.986;2023-01-08T15:05:03;8.00;99.90
5588;DHT22;2816;49.778;9.986;2023-01-08T15:07:41;8.00;99.90
5588;DHT22;2816;49.778;9.986;2023-01-08T15:10:28;8.00;99.90
5588;DHT22;2816;49.778;9.986;2023-01-08T15:12:58;8.00;99.90
5588;DHT22;2816;49.778;9.986;2023-01-08T15:15:28;8.00;99.90
5588;DHT22;2816;49.778;9.986;2023-01-08T15:17:56;7.90;99.90
5588;DHT22;2816;49.778;9.986;2023-01-08T15:20:27;7.90;99.90
5588;DHT22;2816;49.778;9.986;2023-01-08T15:22:54;7.80;99.90
5588;DHT22;2816;49.778;9.986;2023-01-08T15:25:24;7.80;99.90
5588;DHT22;2816;49.778;9.986;2023-01-08T15:27:56;7.70;99.90
5588;DHT22;2816;49.778;9.986;2023-01-08T15:30:31;7.60;99.90
5588;DHT22;2816;49.778;9.986;2023-01-08T15:33:14;7.60;99.90
5588;DHT22;2816;49.778;9.986;2023-01-08T15:35:42;7.50;99.90
5588;DHT22;2816;49.778;9.986;2023-01-08T15:38:10;7.50;99.90
5588;DHT22;2816;49.778;9.986;2023-01-08T15:40:37;7.50;99.90
5588;DHT22;2816;49.778;9.986;2023-01-08T15:43:04;7.50;99.90
5588;DHT22;2816;49.778;9.986;2023-01-08T15:45:38;7.40;99.90
5588;DHT22;2816;49.778;9.986;2023-01-08T15:48:06;7.40;99.90
5588;DHT22;2816;49.778;9.986;2023-01-08T15:50:33;7.40;99.90
5588;DHT22;2816;49.778;9.986;2023-01-08T15:53:04;7.40;99.90
5588;DHT22;2816;49.778;9.986;2023-01-08T15:55:32;7.30;99.90
5588;DHT22;2816;49.778;9.986;2023-01-08T15:57:59;7.30;99.90
5588;DHT22;2816;49.778;9.986;2023-01-08T16:00:26;7.30;99.90
5588;DHT22;2816;49.778;9.986;2023-01-08T16:02:55;7.30;99.90
5588;DHT22;2816;49.778;9.986;2023-01-08T16:05:24;7.30;99.90
5588;DHT22;2816;49.778;9.986;2023-01-08T16:07:51;7.20;99.90
5588;DHT22;2816;49.778;9.986;2023-01-08T16:10:19;7.20;99.90
5588;DHT22;2816;49.778;9.986;2023-01-08T16:12:46;7.20;99.90
5588;DHT22;2816;49.778;9.986;2023-01-08T16:15:14;7.20;99.90
5588;DHT22;2816;49.778;9.986;2023-01-08T16:17:41;7.20;99.90
5588;DHT22;2816;49.778;9.986;2023-01-08T16:20:12;7.20;99.90
5588;DHT22;2816;49.778;9.986;2023-01-08T16:22:39;7.20;99.90
5588;DHT22;2816;49.778;9.986;2023-01-08T16:25:07;7.20;99.90
5588;DHT22;2816;49.778;9.986;2023-01-08T16:27:35;7.20;99.90
5588;DHT22;2816;49.778;9.986;2023-01-08T16:30:04;7.20;99.90
5588;DHT22;2816;49.778;9.986;2023-01-08T16:32:32;7.20;99.90
5588;DHT22;2816;49.778;9.986;2023-01-08T16:34:59;7.20;99.90
5588;DHT22;2816;49.778;9.986;2023-01-08T16:37:29;7.20;99.90